sensor_id;sensor_type;location;lat;lon;timestamp;pressure;altitude;pressure_sealevel;temperature;humidity
64516;BME280;50891;37.380;-122.076;2022-07-29T00:02:11;100791.88;;;30.95;33.15
64516;BME280;50891;37.380;-122.076;2022-07-29T00:04:37;100811.44;;;31.02;33.42
64516;BME280;50891;37.380;-122.076;2022-07-29T00:07:04;100805.22;;;31.07;33.13
64516;BME280;50891;37.380;-122.076;2022-07-29T00:09:31;100809.28;;;31.04;33.18
64516;BME280;50891;37.380;-122.076;2022-07-29T00:12:00;100810.94;;;31.11;33.14
64516;BME280;50891;37.380;-122.076;2022-07-29T00:14:27;100807.69;;;31.14;32.99
64516;BME280;50891;37.380;-122.076;2022-07-29T00:16:53;100804.97;;;31.19;32.86
64516;BME280;50891;37.380;-122.076;2022-07-29T00:19:19;100804.44;;;31.17;32.81
64516;BME280;50891;37.380;-122.076;2022-07-29T00:21:46;100803.59;;;31.16;32.88
64516;BME280;50891;37.380;-122.076;2022-07-29T00:24:12;100799.81;;;31.17;33.12
64516;BME280;50891;37.380;-122.076;2022-07-29T00:26:38;100811.22;;;31.19;32.83
64516;BME280;50891;37.380;-122.076;2022-07-29T00:29:04;100806.88;;;31.18;33.15
64516;BME280;50891;37.380;-122.076;2022-07-29T00:31:31;100796.00;;;31.23;32.85
64516;BME280;50891;37.380;-122.076;2022-07-29T00:33:57;100804.44;;;31.27;32.93
64516;BME280;50891;37.380;-122.076;2022-07-29T00:36:23;100806.34;;;31.26;33.01
64516;BME280;50891;37.380;-122.076;2022-07-29T00:38:50;100806.34;;;31.26;32.89
64516;BME280;50891;37.380;-122.076;2022-07-29T00:41:17;100806.06;;;31.28;33.03
64516;BME280;50891;37.380;-122.076;2022-07-29T00:43:44;100816.41;;;31.31;33.00
64516;BME280;50891;37.380;-122.076;2022-07-29T00:46:11;100816.94;;;31.23;33.07
64516;BME280;50891;37.380;-122.076;2022-07-29T00:48:37;100820.75;;;31.27;32.93
64516;BME280;50891;37.380;-122.076;2022-07-29T00:51:05;100822.38;;;31.28;33.11
64516;BME280;50891;37.380;-122.076;2022-07-29T00:53:33;100813.66;;;31.21;33.01
64516;BME280;50891;37.380;-122.076;2022-07-29T00:56:01;100817.47;;;31.20;33.03
64516;BME280;50891;37.380;-122.076;2022-07-29T00:58:27;100815.31;;;31.22;33.04
64516;BME280;50891;37.380;-122.076;2022-07-29T01:00:54;100826.19;;;31.22;33.23
64516;BME280;50891;37.380;-122.076;2022-07-29T01:03:20;100820.19;;;31.20;33.38
64516;BME280;50891;37.380;-122.076;2022-07-29T01:05:46;100812.59;;;31.22;33.19
64516;BME280;50891;37.380;-122.076;2022-07-29T01:08:14;100820.75;;;31.17;33.13
64516;BME280;50891;37.380;-122.076;2022-07-29T01:10:41;100816.13;;;31.22;33.25
64516;BME280;50891;37.380;-122.076;2022-07-29T01:13:11;100815.56;;;31.25;33.00
64516;BME280;50891;37.380;-122.076;2022-07-29T01:15:46;100810.44;;;31.29;33.29
64516;BME280;50891;37.380;-122.076;2022-07-29T01:18:21;100811.78;;;31.32;33.11
64516;BME280;50891;37.380;-122.076;2022-07-29T01:24:27;100813.69;;;31.31;33.12
64516;BME280;50891;37.380;-122.076;2022-07-29T01:26:59;100813.16;;;31.29;32.98
64516;BME280;50891;37.380;-122.076;2022-07-29T01:29:48;100817.78;;;31.28;33.09
64516;BME280;50891;37.380;-122.076;2022-07-29T01:32:23;100822.91;;;31.25;33.15
64516;BME280;50891;37.380;-122.076;2022-07-29T01:35:02;100816.94;;;31.23;33.15
64516;BME280;50891;37.380;-122.076;2022-07-29T01:37:44;100817.22;;;31.21;33.46
64516;BME280;50891;37.380;-122.076;2022-07-29T01:40:22;100807.16;;;31.22;33.92
64516;BME280;50891;37.380;-122.076;2022-07-29T01:42:55;100817.47;;;31.25;33.88
64516;BME280;50891;37.380;-122.076;2022-07-29T01:45:45;100818.84;;;31.27;33.92
64516;BME280;50891;37.380;-122.076;2022-07-29T01:48:20;100814.22;;;31.28;34.28
64516;BME280;50891;37.380;-122.076;2022-07-29T01:51:08;100816.41;;;31.31;34.04
64516;BME280;50891;37.380;-122.076;2022-07-29T01:53:43;100812.59;;;31.27;34.39
64516;BME280;50891;37.380;-122.076;2022-07-29T01:56:12;100813.16;;;31.24;34.29
64516;BME280;50891;37.380;-122.076;2022-07-29T01:58:41;100821.84;;;31.31;34.40
64516;BME280;50891;37.380;-122.076;2022-07-29T02:01:10;100814.78;;;31.30;34.23
64516;BME280;50891;37.380;-122.076;2022-07-29T02:03:38;100816.94;;;31.28;34.42
64516;BME280;50891;37.380;-122.076;2022-07-29T02:06:07;100821.56;;;31.27;34.47
64516;BME280;50891;37.380;-122.076;2022-07-29T02:08:36;100831.63;;;31.32;34.12
64516;BME280;50891;37.380;-122.076;2022-07-29T02:11:05;100827.03;;;31.38;34.45
64516;BME280;50891;37.380;-122.076;2022-07-29T02:13:34;100826.47;;;31.36;34.20
64516;BME280;50891;37.380;-122.076;2022-07-29T02:16:04;100828.66;;;31.39;34.36
64516;BME280;50891;37.380;-122.076;2022-07-29T02:18:31;100831.94;;;31.41;34.25
64516;BME280;50891;37.380;-122.076;2022-07-29T02:21:00;100833.31;;;31.48;34.25
64516;BME280;50891;37.380;-122.076;2022-07-29T02:23:27;100833.88;;;31.40;34.13
64516;BME280;50891;37.380;-122.076;2022-07-29T02:25:56;100834.91;;;31.39;34.10
64516;BME280;50891;37.380;-122.076;2022-07-29T02:28:26;100838.75;;;31.43;34.38
64516;BME280;50891;37.380;-122.076;2022-07-29T02:30:58;100844.44;;;31.42;34.00
64516;BME280;50891;37.380;-122.076;2022-07-29T02:33:26;100840.13;;;31.46;34.19
64516;BME280;50891;37.380;-122.076;2022-07-29T02:35:53;100833.56;;;31.42;34.13
64516;BME280;50891;37.380;-122.076;2022-07-29T02:38:21;100835.22;;;31.43;34.22
64516;BME280;50891;37.380;-122.076;2022-07-29T02:41:12;100840.91;;;31.46;34.28
64516;BME280;50891;37.380;-122.076;2022-07-29T02:43:40;100838.19;;;31.41;34.39
64516;BME280;50891;37.380;-122.076;2022-07-29T02:46:14;100845.28;;;31.42;34.23
64516;BME280;50891;37.380;-122.076;2022-07-29T02:48:48;100840.38;;;31.44;34.00
64516;BME280;50891;37.380;-122.076;2022-07-29T02:51:25;100845.53;;;31.41;34.16
64516;BME280;50891;37.380;-122.076;2022-07-29T02:53:56;100849.03;;;31.36;34.09
64516;BME280;50891;37.380;-122.076;2022-07-29T02:56:25;100846.88;;;31.33;34.19
64516;BME280;50891;37.380;-122.076;2022-07-29T02:58:57;100848.75;;;31.33;34.16
64516;BME280;50891;37.380;-122.076;2022-07-29T03:01:25;100854.97;;;31.28;34.51
64516;BME280;50891;37.380;-122.076;2022-07-29T03:03:56;100860.97;;;31.25;34.77
64516;BME280;50891;37.380;-122.076;2022-07-29T03:06:25;100860.16;;;31.24;34.33
64516;BME280;50891;37.380;-122.076;2022-07-29T03:08:54;100855.25;;;31.21;34.29
64516;BME280;50891;37.380;-122.076;2022-07-29T03:11:21;100858.25;;;31.20;34.25
64516;BME280;50891;37.380;-122.076;2022-07-29T03:13:48;100854.66;;;31.14;34.45
64516;BME280;50891;37.380;-122.076;2022-07-29T03:16:14;100857.69;;;31.13;34.26
64516;BME280;50891;37.380;-122.076;2022-07-29T03:18:41;100860.66;;;31.11;34.42
64516;BME280;50891;37.380;-122.076;2022-07-29T03:21:08;100860.66;;;31.11;34.65
64516;BME280;50891;37.380;-122.076;2022-07-29T03:23:34;100866.38;;;31.15;34.25
64516;BME280;50891;37.380;-122.076;2022-07-29T03:26:00;100858.25;;;31.20;34.20
64516;BME280;50891;37.380;-122.076;2022-07-29T03:28:26;100863.94;;;31.23;34.11
64516;BME280;50891;37.380;-122.076;2022-07-29T03:30:53;100856.34;;;31.25;33.83
64516;BME280;50891;37.380;-122.076;2022-07-29T03:33:19;100855.81;;;31.28;33.86
64516;BME280;50891;37.380;-122.076;2022-07-29T03:35:45;100858.25;;;31.30;33.61
64516;BME280;50891;37.380;-122.076;2022-07-29T03:38:12;100848.75;;;31.27;33.42
64516;BME280;50891;37.380;-122.076;2022-07-29T03:40:59;100857.75;;;31.33;33.55
64516;BME280;50891;37.380;-122.076;2022-07-29T03:43:30;100860.72;;;31.37;33.58
64516;BME280;50891;37.380;-122.076;2022-07-29T03:46:00;100863.19;;;31.38;33.32
64516;BME280;50891;37.380;-122.076;2022-07-29T03:48:30;100856.66;;;31.39;33.47
64516;BME280;50891;37.380;-122.076;2022-07-29T03:50:57;100862.66;;;31.41;33.09
64516;BME280;50891;37.380;-122.076;2022-07-29T03:53:23;100867.03;;;31.42;33.06
64516;BME280;50891;37.380;-122.076;2022-07-29T03:55:54;100862.88;;;31.40;32.98
64516;BME280;50891;37.380;-122.076;2022-07-29T03:58:23;100861.53;;;31.37;33.05
64516;BME280;50891;37.380;-122.076;2022-07-29T04:00:52;100865.09;;;31.38;33.25
64516;BME280;50891;37.380;-122.076;2022-07-29T04:03:20;100860.97;;;31.35;33.00
64516;BME280;50891;37.380;-122.076;2022-07-29T04:06:01;100864.25;;;31.32;33.05
64516;BME280;50891;37.380;-122.076;2022-07-29T04:08:28;100862.59;;;31.26;33.13
64516;BME280;50891;37.380;-122.076;2022-07-29T04:10:54;100864.78;;;31.24;33.46
64516;BME280;50891;37.380;-122.076;2022-07-29T04:13:20;100871.28;;;31.23;33.39
64516;BME280;50891;37.380;-122.076;2022-07-29T04:15:47;100865.28;;;31.21;33.22
64516;BME280;50891;37.380;-122.076;2022-07-29T04:18:13;100866.41;;;31.20;33.39
64516;BME280;50891;37.380;-122.076;2022-07-29T04:20:39;100875.09;;;31.17;33.39
64516;BME280;50891;37.380;-122.076;2022-07-29T04:23:05;100873.69;;;31.14;33.23
64516;BME280;50891;37.380;-122.076;2022-07-29T04:25:31;100870.16;;;31.14;33.54
64516;BME280;50891;37.380;-122.076;2022-07-29T04:27:57;100878.03;;;31.10;33.32
64516;BME280;50891;37.380;-122.076;2022-07-29T04:30:28;100880.47;;;31.06;33.72
64516;BME280;50891;37.380;-122.076;2022-07-29T04:32:54;100879.34;;;31.02;33.48
64516;BME280;50891;37.380;-122.076;2022-07-29T04:35:20;100884.53;;;30.99;33.53
64516;BME280;50891;37.380;-122.076;2022-07-29T04:37:47;100882.84;;;30.93;33.82
64516;BME280;50891;37.380;-122.076;2022-07-29T04:40:13;100884.47;;;30.88;33.81
64516;BME280;50891;37.380;-122.076;2022-07-29T04:42:39;100892.09;;;30.86;33.88
64516;BME280;50891;37.380;-122.076;2022-07-29T04:45:06;100894.25;;;30.84;33.76
64516;BME280;50891;37.380;-122.076;2022-07-29T04:47:32;100898.00;;;30.83;33.63
64516;BME280;50891;37.380;-122.076;2022-07-29T04:49:58;100900.44;;;30.80;33.80
64516;BME280;50891;37.380;-122.076;2022-07-29T04:52:25;100897.41;;;30.76;33.93
64516;BME280;50891;37.380;-122.076;2022-07-29T04:54:51;100900.41;;;30.75;33.95
64516;BME280;50891;37.380;-122.076;2022-07-29T04:57:17;100908.81;;;30.73;34.08
64516;BME280;50891;37.380;-122.076;2022-07-29T04:59:43;100905.22;;;30.67;33.96
64516;BME280;50891;37.380;-122.076;2022-07-29T05:02:09;100907.41;;;30.65;34.13
64516;BME280;50891;37.380;-122.076;2022-07-29T05:04:36;100912.53;;;30.62;34.30
64516;BME280;50891;37.380;-122.076;2022-07-29T05:07:02;100913.06;;;30.59;34.43
64516;BME280;50891;37.380;-122.076;2022-07-29T05:09:28;100914.94;;;30.58;34.07
64516;BME280;50891;37.380;-122.076;2022-07-29T05:11:54;100911.16;;;30.54;34.39
64516;BME280;50891;37.380;-122.076;2022-07-29T05:14:20;100913.53;;;30.51;34.35
64516;BME280;50891;37.380;-122.076;2022-07-29T05:16:46;100913.00;;;30.49;34.55
64516;BME280;50891;37.380;-122.076;2022-07-29T05:19:14;100911.63;;;30.46;34.42
64516;BME280;50891;37.380;-122.076;2022-07-29T05:21:40;100918.94;;;30.45;34.38
64516;BME280;50891;37.380;-122.076;2022-07-29T05:24:06;100923.56;;;30.45;34.44
64516;BME280;50891;37.380;-122.076;2022-07-29T05:26:33;100923.00;;;30.43;34.46
64516;BME280;50891;37.380;-122.076;2022-07-29T05:28:59;100922.44;;;30.41;34.53
64516;BME280;50891;37.380;-122.076;2022-07-29T05:31:26;100918.91;;;30.40;34.63
64516;BME280;50891;37.380;-122.076;2022-07-29T05:33:55;100920.25;;;30.38;34.43
64516;BME280;50891;37.380;-122.076;2022-07-29T05:36:21;100915.09;;;30.36;34.69
64516;BME280;50891;37.380;-122.076;2022-07-29T05:38:47;100920.47;;;30.31;34.54
64516;BME280;50891;37.380;-122.076;2022-07-29T05:41:16;100921.53;;;30.30;34.50
64516;BME280;50891;37.380;-122.076;2022-07-29T05:43:42;100914.09;;;30.20;34.70
64516;BME280;50891;37.380;-122.076;2022-07-29T05:46:08;100919.09;;;30.29;34.65
64516;BME280;50891;37.380;-122.076;2022-07-29T05:48:35;100915.81;;;30.27;34.38
64516;BME280;50891;37.380;-122.076;2022-07-29T05:51:01;100925.88;;;30.26;34.48
64516;BME280;50891;37.380;-122.076;2022-07-29T05:53:27;100922.81;;;30.22;34.58
64516;BME280;50891;37.380;-122.076;2022-07-29T05:55:54;100916.25;;;30.18;34.71
64516;BME280;50891;37.380;-122.076;2022-07-29T05:58:20;100926.56;;;30.16;34.34
64516;BME280;50891;37.380;-122.076;2022-07-29T06:00:46;100920.31;;;30.16;34.38
64516;BME280;50891;37.380;-122.076;2022-07-29T06:03:12;100914.59;;;30.12;34.59
64516;BME280;50891;37.380;-122.076;2022-07-29T06:05:39;100921.38;;;30.10;34.55
64516;BME280;50891;37.380;-122.076;2022-07-29T06:08:05;100918.91;;;30.08;34.56
64516;BME280;50891;37.380;-122.076;2022-07-29T06:10:34;100910.19;;;30.06;34.59
64516;BME280;50891;37.380;-122.076;2022-07-29T06:13:01;100908.56;;;30.05;34.62
64516;BME280;50891;37.380;-122.076;2022-07-29T06:15:27;100912.88;;;30.01;34.90
64516;BME280;50891;37.380;-122.076;2022-07-29T06:17:53;100921.00;;;30.01;34.67
64516;BME280;50891;37.380;-122.076;2022-07-29T06:20:19;100916.13;;;29.98;34.80
64516;BME280;50891;37.380;-122.076;2022-07-29T06:22:46;100918.81;;;29.98;35.03
64516;BME280;50891;37.380;-122.076;2022-07-29T06:25:12;100915.56;;;29.96;34.92
64516;BME280;50891;37.380;-122.076;2022-07-29T06:27:38;100910.13;;;29.96;34.74
64516;BME280;50891;37.380;-122.076;2022-07-29T06:30:05;100918.81;;;29.98;34.89
64516;BME280;50891;37.380;-122.076;2022-07-29T06:32:33;100919.31;;;29.95;34.82
64516;BME280;50891;37.380;-122.076;2022-07-29T06:34:59;100916.03;;;29.93;34.94
64516;BME280;50891;37.380;-122.076;2022-07-29T06:37:25;100914.41;;;29.92;34.75
64516;BME280;50891;37.380;-122.076;2022-07-29T06:39:52;100914.94;;;29.89;34.85
64516;BME280;50891;37.380;-122.076;2022-07-29T06:42:42;100910.53;;;29.82;34.79
64516;BME280;50891;37.380;-122.076;2022-07-29T06:45:09;100906.19;;;29.81;34.74
64516;BME280;50891;37.380;-122.076;2022-07-29T06:47:35;100901.28;;;29.78;34.72
64516;BME280;50891;37.380;-122.076;2022-07-29T06:50:02;100904.50;;;29.75;34.73
64516;BME280;50891;37.380;-122.076;2022-07-29T06:52:28;100905.03;;;29.72;34.77
64516;BME280;50891;37.380;-122.076;2022-07-29T06:54:54;100907.16;;;29.70;34.76
64516;BME280;50891;37.380;-122.076;2022-07-29T06:57:21;100907.66;;;29.67;34.74
64516;BME280;50891;37.380;-122.076;2022-07-29T06:59:48;100896.22;;;29.65;34.78
64516;BME280;50891;37.380;-122.076;2022-07-29T07:02:14;100901.91;;;29.63;34.73
64516;BME280;50891;37.380;-122.076;2022-07-29T07:04:40;100904.88;;;29.62;34.94
64516;BME280;50891;37.380;-122.076;2022-07-29T07:07:06;100901.03;;;29.58;35.06
64516;BME280;50891;37.380;-122.076;2022-07-29T07:09:33;100903.44;;;29.54;35.08
64516;BME280;50891;37.380;-122.076;2022-07-29T07:11:59;100913.19;;;29.55;35.24
64516;BME280;50891;37.380;-122.076;2022-07-29T07:14:29;100905.06;;;29.55;35.21
64516;BME280;50891;37.380;-122.076;2022-07-29T07:16:55;100908.06;;;29.54;35.14
64516;BME280;50891;37.380;-122.076;2022-07-29T07:19:22;100911.00;;;29.52;35.25
64516;BME280;50891;37.380;-122.076;2022-07-29T07:21:48;100910.69;;;29.49;35.43
64516;BME280;50891;37.380;-122.076;2022-07-29T07:24:14;100913.97;;;29.51;35.46
64516;BME280;50891;37.380;-122.076;2022-07-29T07:26:41;100923.19;;;29.50;35.34
64516;BME280;50891;37.380;-122.076;2022-07-29T07:29:07;100920.47;;;29.50;35.31
64516;BME280;50891;37.380;-122.076;2022-07-29T07:31:33;100921.03;;;29.52;35.26
64516;BME280;50891;37.380;-122.076;2022-07-29T07:34:00;100927.28;;;29.52;35.29
64516;BME280;50891;37.380;-122.076;2022-07-29T07:36:26;100933.50;;;29.53;35.46
64516;BME280;50891;37.380;-122.076;2022-07-29T07:38:52;100924.56;;;29.52;35.39
64516;BME280;50891;37.380;-122.076;2022-07-29T07:41:18;100925.38;;;29.53;35.23
64516;BME280;50891;37.380;-122.076;2022-07-29T07:43:44;100933.03;;;29.56;35.07
64516;BME280;50891;37.380;-122.076;2022-07-29T07:46:11;100933.03;;;29.56;35.14
64516;BME280;50891;37.380;-122.076;2022-07-29T07:48:37;100924.03;;;29.55;35.24
64516;BME280;50891;37.380;-122.076;2022-07-29T07:51:03;100923.22;;;29.55;35.24
64516;BME280;50891;37.380;-122.076;2022-07-29T07:53:29;100921.34;;;29.55;34.97
64516;BME280;50891;37.380;-122.076;2022-07-29T07:55:56;100934.31;;;29.53;35.17
64516;BME280;50891;37.380;-122.076;2022-07-29T07:58:22;100925.38;;;29.53;35.11
64516;BME280;50891;37.380;-122.076;2022-07-29T08:00:48;100919.97;;;29.53;34.97
64516;BME280;50891;37.380;-122.076;2022-07-29T08:03:14;100917.25;;;29.53;34.85
64516;BME280;50891;37.380;-122.076;2022-07-29T08:05:41;100921.84;;;29.52;35.11
64516;BME280;50891;37.380;-122.076;2022-07-29T08:08:07;100921.03;;;29.52;34.86
64516;BME280;50891;37.380;-122.076;2022-07-29T08:10:33;100909.59;;;29.45;34.95
64516;BME280;50891;37.380;-122.076;2022-07-29T08:13:19;100915.28;;;29.48;35.08
64516;BME280;50891;37.380;-122.076;2022-07-29T08:15:46;100905.78;;;29.46;35.04
64516;BME280;50891;37.380;-122.076;2022-07-29T08:18:13;100910.41;;;29.45;35.11
64516;BME280;50891;37.380;-122.076;2022-07-29T08:20:39;100905.78;;;29.46;35.03
64516;BME280;50891;37.380;-122.076;2022-07-29T08:23:07;100912.84;;;29.47;34.85
64516;BME280;50891;37.380;-122.076;2022-07-29T08:25:37;100912.03;;;29.46;34.95
64516;BME280;50891;37.380;-122.076;2022-07-29T08:28:06;100916.06;;;29.44;34.93
64516;BME280;50891;37.380;-122.076;2022-07-29T08:30:33;100905.50;;;29.42;35.01
64516;BME280;50891;37.380;-122.076;2022-07-29T08:33:00;100906.53;;;29.41;34.69
64516;BME280;50891;37.380;-122.076;2022-07-29T08:35:26;100902.69;;;29.37;35.27
64516;BME280;50891;37.380;-122.076;2022-07-29T08:37:53;100906.25;;;29.37;35.05
64516;BME280;50891;37.380;-122.076;2022-07-29T08:40:20;100900.84;;;29.37;35.11
64516;BME280;50891;37.380;-122.076;2022-07-29T08:42:46;100904.34;;;29.38;34.76
64516;BME280;50891;37.380;-122.076;2022-07-29T08:45:13;100893.19;;;29.34;34.93
64516;BME280;50891;37.380;-122.076;2022-07-29T08:47:39;100904.03;;;29.34;35.08
64516;BME280;50891;37.380;-122.076;2022-07-29T08:50:07;100898.63;;;29.34;35.02
64516;BME280;50891;37.380;-122.076;2022-07-29T08:52:36;100898.63;;;29.34;35.02
64516;BME280;50891;37.380;-122.076;2022-07-29T08:55:04;100898.38;;;29.36;34.73
64516;BME280;50891;37.380;-122.076;2022-07-29T08:57:33;100893.19;;;29.34;34.93
64516;BME280;50891;37.380;-122.076;2022-07-29T09:00:03;100886.16;;;29.33;34.78
64516;BME280;50891;37.380;-122.076;2022-07-29T09:02:35;100882.63;;;29.33;35.19
64516;BME280;50891;37.380;-122.076;2022-07-29T09:05:05;100889.09;;;29.32;34.72
64516;BME280;50891;37.380;-122.076;2022-07-29T09:07:31;100892.09;;;29.30;35.02
64516;BME280;50891;37.380;-122.076;2022-07-29T09:09:59;100890.13;;;29.26;34.90
64516;BME280;50891;37.380;-122.076;2022-07-29T09:12:25;100884.41;;;29.22;35.00
64516;BME280;50891;37.380;-122.076;2022-07-29T09:14:52;100882.19;;;29.19;34.98
64516;BME280;50891;37.380;-122.076;2022-07-29T09:17:18;100887.03;;;29.17;35.16
64516;BME280;50891;37.380;-122.076;2022-07-29T09:20:15;100890.81;;;29.16;34.95
64516;BME280;50891;37.380;-122.076;2022-07-29T09:22:42;100884.00;;;29.13;35.05
64516;BME280;50891;37.380;-122.076;2022-07-29T09:25:10;100885.09;;;29.12;35.01
64516;BME280;50891;37.380;-122.076;2022-07-29T09:27:37;100884.00;;;29.13;35.05
64516;BME280;50891;37.380;-122.076;2022-07-29T09:32:30;100878.53;;;29.08;34.83
64516;BME280;50891;37.380;-122.076;2022-07-29T09:35:17;100884.78;;;29.09;34.96
64516;BME280;50891;37.380;-122.076;2022-07-29T09:37:44;100883.88;;;29.03;34.92
64516;BME280;50891;37.380;-122.076;2022-07-29T09:40:20;100882.47;;;29.00;34.82
64516;BME280;50891;37.380;-122.076;2022-07-29T09:42:47;100871.31;;;28.97;34.90
64516;BME280;50891;37.380;-122.076;2022-07-29T09:45:29;100876.16;;;28.95;34.99
64516;BME280;50891;37.380;-122.076;2022-07-29T09:47:56;100870.22;;;28.93;35.04
64516;BME280;50891;37.380;-122.076;2022-07-29T09:50:39;100871.50;;;28.90;34.82
64516;BME280;50891;37.380;-122.076;2022-07-29T09:53:06;100877.13;;;28.84;34.89
64516;BME280;50891;37.380;-122.076;2022-07-29T09:55:49;100876.00;;;28.79;35.13
64516;BME280;50891;37.380;-122.076;2022-07-29T09:58:20;100868.63;;;28.75;35.17
64516;BME280;50891;37.380;-122.076;2022-07-29T10:00:48;100878.31;;;28.71;34.94
64516;BME280;50891;37.380;-122.076;2022-07-29T10:03:16;100861.75;;;28.67;35.18
64516;BME280;50891;37.380;-122.076;2022-07-29T10:05:44;100859.53;;;28.64;35.07
64516;BME280;50891;37.380;-122.076;2022-07-29T10:08:11;100860.28;;;28.60;35.23
64516;BME280;50891;37.380;-122.076;2022-07-29T10:10:42;100860.28;;;28.60;35.08
64516;BME280;50891;37.380;-122.076;2022-07-29T10:13:11;100870.53;;;28.57;35.12
64516;BME280;50891;37.380;-122.076;2022-07-29T10:15:40;100868.09;;;28.56;35.19
64516;BME280;50891;37.380;-122.076;2022-07-29T10:18:09;100869.16;;;28.55;35.19
64516;BME280;50891;37.380;-122.076;2022-07-29T10:20:37;100862.91;;;28.54;35.11
64516;BME280;50891;37.380;-122.076;2022-07-29T10:23:04;100860.16;;;28.49;35.06
64516;BME280;50891;37.380;-122.076;2022-07-29T10:25:30;100859.34;;;28.49;35.22
64516;BME280;50891;37.380;-122.076;2022-07-29T10:27:57;100863.09;;;28.48;35.20
64516;BME280;50891;37.380;-122.076;2022-07-29T10:30:24;100872.50;;;28.45;35.07
64516;BME280;50891;37.380;-122.076;2022-07-29T10:39:05;100855.84;;;28.36;35.31
64516;BME280;50891;37.380;-122.076;2022-07-29T10:44:18;100848.47;;;28.32;35.31
64516;BME280;50891;37.380;-122.076;2022-07-29T10:46:45;100867.94;;;28.29;35.09
64516;BME280;50891;37.380;-122.076;2022-07-29T10:49:24;100860.31;;;28.26;35.37
64516;BME280;50891;37.380;-122.076;2022-07-29T10:52:03;100852.94;;;28.21;35.15
64516;BME280;50891;37.380;-122.076;2022-07-29T10:57:28;100848.50;;;28.15;35.30
64516;BME280;50891;37.380;-122.076;2022-07-29T11:05:18;100857.84;;;28.07;35.73
64516;BME280;50891;37.380;-122.076;2022-07-29T11:10:39;100856.72;;;28.03;35.75
64516;BME280;50891;37.380;-122.076;2022-07-29T11:13:06;100856.72;;;28.03;35.68
64516;BME280;50891;37.380;-122.076;2022-07-29T11:15:57;100857.78;;;28.02;35.81
64516;BME280;50891;37.380;-122.076;2022-07-29T11:18:23;100853.19;;;28.03;35.64
64516;BME280;50891;37.380;-122.076;2022-07-29T11:20:51;100855.88;;;28.03;35.75
64516;BME280;50891;37.380;-122.076;2022-07-29T11:23:24;100858.25;;;27.99;35.53
64516;BME280;50891;37.380;-122.076;2022-07-29T11:31:32;100858.19;;;27.94;35.56
64516;BME280;50891;37.380;-122.076;2022-07-29T11:44:55;100851.53;;;27.85;35.64
64516;BME280;50891;37.380;-122.076;2022-07-29T11:47:28;100849.53;;;27.80;35.76
64516;BME280;50891;37.380;-122.076;2022-07-29T11:49:56;100855.19;;;27.79;35.77
64516;BME280;50891;37.380;-122.076;2022-07-29T11:52:23;100853.53;;;27.78;36.08
64516;BME280;50891;37.380;-122.076;2022-07-29T11:54:58;100851.34;;;27.74;35.96
64516;BME280;50891;37.380;-122.076;2022-07-29T11:57:28;100867.56;;;27.74;35.93
64516;BME280;50891;37.380;-122.076;2022-07-29T11:59:55;100861.34;;;27.74;35.93
64516;BME280;50891;37.380;-122.076;2022-07-29T12:02:23;100851.81;;;27.71;35.88
64516;BME280;50891;37.380;-122.076;2022-07-29T12:04:56;100866.16;;;27.72;35.85
64516;BME280;50891;37.380;-122.076;2022-07-29T12:07:32;100856.66;;;27.69;36.22
64516;BME280;50891;37.380;-122.076;2022-07-29T12:09:59;100856.66;;;27.69;36.17
64516;BME280;50891;37.380;-122.076;2022-07-29T12:12:25;100855.25;;;27.67;35.97
64516;BME280;50891;37.380;-122.076;2022-07-29T12:14:52;100856.31;;;27.66;36.03
64516;BME280;50891;37.380;-122.076;2022-07-29T12:17:27;100859.81;;;27.66;35.98
64516;BME280;50891;37.380;-122.076;2022-07-29T12:19:54;100857.13;;;27.66;35.88
64516;BME280;50891;37.380;-122.076;2022-07-29T12:22:37;100856.91;;;27.68;35.98
64516;BME280;50891;37.380;-122.076;2022-07-29T12:25:12;100858.78;;;27.67;36.06
64516;BME280;50891;37.380;-122.076;2022-07-29T12:27:41;100850.91;;;27.66;36.00
64516;BME280;50891;37.380;-122.076;2022-07-29T12:30:16;100860.91;;;27.65;36.08
64516;BME280;50891;37.380;-122.076;2022-07-29T12:32:47;100863.03;;;27.63;36.09
64516;BME280;50891;37.380;-122.076;2022-07-29T12:35:19;100867.84;;;27.61;35.81
64516;BME280;50891;37.380;-122.076;2022-07-29T12:37:47;100862.44;;;27.61;36.08
64516;BME280;50891;37.380;-122.076;2022-07-29T12:40:16;100862.94;;;27.58;36.04
64516;BME280;50891;37.380;-122.076;2022-07-29T12:43:05;100866.09;;;27.55;36.24
64516;BME280;50891;37.380;-122.076;2022-07-29T12:45:33;100869.88;;;27.54;36.29
64516;BME280;50891;37.380;-122.076;2022-07-29T12:47:59;100855.78;;;27.52;36.20
64516;BME280;50891;37.380;-122.076;2022-07-29T12:50:25;100863.31;;;27.50;36.26
64516;BME280;50891;37.380;-122.076;2022-07-29T12:52:51;100868.13;;;27.48;36.09
64516;BME280;50891;37.380;-122.076;2022-07-29T12:58:05;100865.94;;;27.45;36.37
64516;BME280;50891;37.380;-122.076;2022-07-29T13:00:31;100860.53;;;27.45;36.40
64516;BME280;50891;37.380;-122.076;2022-07-29T13:02:59;100861.59;;;27.44;36.47
64516;BME280;50891;37.380;-122.076;2022-07-29T13:05:43;100853.72;;;27.42;36.49
64516;BME280;50891;37.380;-122.076;2022-07-29T13:08:13;100861.84;;;27.42;36.56
64516;BME280;50891;37.380;-122.076;2022-07-29T13:10:40;100855.63;;;27.42;36.33
64516;BME280;50891;37.380;-122.076;2022-07-29T13:13:12;100859.72;;;27.44;36.52
64516;BME280;50891;37.380;-122.076;2022-07-29T13:15:44;100862.06;;;27.41;36.52